sensor_id;sensor_type;location;lat;lon;timestamp;pressure;altitude;pressure_sealevel;temperature;humidity
79138;BME280;68544;45.566;10.238;2023-09-19T00:02:17;99431.63;;;23.28;70.27
79138;BME280;68544;45.566;10.238;2023-09-19T00:04:42;99445.91;;;22.71;72.97
79138;BME280;68544;45.566;10.238;2023-09-19T00:07:08;99448.69;;;22.66;73.29
79138;BME280;68544;45.566;10.238;2023-09-19T00:09:34;99444.78;;;22.88;72.37
79138;BME280;68544;45.566;10.238;2023-09-19T00:12:06;99447.81;;;22.86;72.29
79138;BME280;68544;45.566;10.238;2023-09-19T00:14:32;99443.47;;;22.50;73.93
79138;BME280;68544;45.566;10.238;2023-09-19T00:17:03;99444.31;;;22.60;73.08
79138;BME280;68544;45.566;10.238;2023-09-19T00:19:34;99443.41;;;22.80;72.25
79138;BME280;68544;45.566;10.238;2023-09-19T00:21:59;99444.03;;;22.52;73.33
79138;BME280;68544;45.566;10.238;2023-09-19T00:24:25;99436.81;;;22.81;72.27
79138;BME280;68544;45.566;10.238;2023-09-19T00:26:53;99427.22;;;22.73;72.17
79138;BME280;68544;45.566;10.238;2023-09-19T00:29:19;99425.25;;;22.84;71.31
79138;BME280;68544;45.566;10.238;2023-09-19T00:31:45;99408.16;;;22.82;70.90
79138;BME280;68544;45.566;10.238;2023-09-19T00:34:10;99429.19;;;22.38;72.96
79138;BME280;68544;45.566;10.238;2023-09-19T00:36:39;99420.38;;;22.41;73.01
79138;BME280;68544;45.566;10.238;2023-09-19T00:39:05;99423.09;;;22.51;72.74
79138;BME280;68544;45.566;10.238;2023-09-19T00:41:31;99424.75;;;22.62;72.21
79138;BME280;68544;45.566;10.238;2023-09-19T00:43:56;99418.97;;;22.68;72.01
79138;BME280;68544;45.566;10.238;2023-09-19T00:46:21;99404.44;;;22.28;72.88
79138;BME280;68544;45.566;10.238;2023-09-19T00:48:47;99423.13;;;22.61;72.58
79138;BME280;68544;45.566;10.238;2023-09-19T00:51:12;99412.97;;;22.31;73.90
79138;BME280;68544;45.566;10.238;2023-09-19T00:53:45;99424.25;;;22.40;74.16
79138;BME280;68544;45.566;10.238;2023-09-19T00:56:11;99418.22;;;21.87;76.04
79138;BME280;68544;45.566;10.238;2023-09-19T00:58:37;99426.47;;;22.23;74.98
79138;BME280;68544;45.566;10.238;2023-09-19T01:01:04;99422.59;;;22.24;74.69
79138;BME280;68544;45.566;10.238;2023-09-19T01:03:32;99420.97;;;22.08;75.24
79138;BME280;68544;45.566;10.238;2023-09-19T01:05:59;99422.03;;;22.32;73.86
79138;BME280;68544;45.566;10.238;2023-09-19T01:08:25;99419.31;;;22.22;73.72
79138;BME280;68544;45.566;10.238;2023-09-19T01:10:59;99417.41;;;22.07;74.03
79138;BME280;68544;45.566;10.238;2023-09-19T01:13:31;99417.13;;;22.04;74.10
79138;BME280;68544;45.566;10.238;2023-09-19T01:16:11;99422.66;;;21.93;73.87
79138;BME280;68544;45.566;10.238;2023-09-19T01:19:00;99427.56;;;22.22;72.66
79138;BME280;68544;45.566;10.238;2023-09-19T01:21:44;99430.31;;;22.12;73.08
79138;BME280;68544;45.566;10.238;2023-09-19T01:24:37;99418.22;;;22.23;72.71
79138;BME280;68544;45.566;10.238;2023-09-19T01:29:49;99426.72;;;22.26;72.50
79138;BME280;68544;45.566;10.238;2023-09-19T01:32:20;99431.44;;;22.06;73.24
79138;BME280;68544;45.566;10.238;2023-09-19T01:34:54;99428.91;;;22.34;72.06
79138;BME280;68544;45.566;10.238;2023-09-19T01:37:23;99429.75;;;22.30;72.24
79138;BME280;68544;45.566;10.238;2023-09-19T01:39:55;99436.34;;;22.29;72.42
79138;BME280;68544;45.566;10.238;2023-09-19T01:42:34;99438.59;;;22.17;72.86
79138;BME280;68544;45.566;10.238;2023-09-19T01:45:13;99434.69;;;22.33;71.90
79138;BME280;68544;45.566;10.238;2023-09-19T01:47:49;99434.13;;;22.36;71.63
79138;BME280;68544;45.566;10.238;2023-09-19T01:53:11;99440.22;;;22.18;72.33
79138;BME280;68544;45.566;10.238;2023-09-19T01:55:43;99435.25;;;22.05;73.13
79138;BME280;68544;45.566;10.238;2023-09-19T02:00:41;99441.88;;;22.14;72.94
79138;BME280;68544;45.566;10.238;2023-09-19T02:03:09;99450.94;;;22.14;73.11
79138;BME280;68544;45.566;10.238;2023-09-19T02:05:35;99444.63;;;21.98;73.73
79138;BME280;68544;45.566;10.238;2023-09-19T02:08:00;99439.94;;;22.19;72.74
79138;BME280;68544;45.566;10.238;2023-09-19T02:10:26;99442.13;;;22.17;72.53
79138;BME280;68544;45.566;10.238;2023-09-19T02:12:51;99446.28;;;22.10;72.87
79138;BME280;68544;45.566;10.238;2023-09-19T02:15:16;99446.81;;;22.12;73.17
79138;BME280;68544;45.566;10.238;2023-09-19T02:17:45;99448.44;;;21.72;74.92
79138;BME280;68544;45.566;10.238;2023-09-19T02:20:11;99439.66;;;21.85;74.39
79138;BME280;68544;45.566;10.238;2023-09-19T02:22:41;99444.03;;;21.71;75.07
79138;BME280;68544;45.566;10.238;2023-09-19T02:25:07;99444.63;;;21.93;74.08
79138;BME280;68544;45.566;10.238;2023-09-19T02:27:33;99444.34;;;22.00;73.92
79138;BME280;68544;45.566;10.238;2023-09-19T02:29:59;99449.84;;;22.10;73.24
79138;BME280;68544;45.566;10.238;2023-09-19T02:32:27;99442.97;;;21.92;74.08
79138;BME280;68544;45.566;10.238;2023-09-19T02:34:55;99450.66;;;22.00;73.58
79138;BME280;68544;45.566;10.238;2023-09-19T02:37:20;99447.38;;;22.14;72.85
79138;BME280;68544;45.566;10.238;2023-09-19T02:39:46;99447.38;;;21.98;73.18
79138;BME280;68544;45.566;10.238;2023-09-19T02:42:11;99444.63;;;21.93;73.75
79138;BME280;68544;45.566;10.238;2023-09-19T02:44:37;99434.97;;;21.81;74.24
79138;BME280;68544;45.566;10.238;2023-09-19T02:47:03;99441.31;;;21.96;73.26
79138;BME280;68544;45.566;10.238;2023-09-19T02:49:28;99437.97;;;21.69;74.41
79138;BME280;68544;45.566;10.238;2023-09-19T02:51:54;99442.41;;;21.85;73.80
79138;BME280;68544;45.566;10.238;2023-09-19T02:54:19;99444.34;;;21.85;74.14
79138;BME280;68544;45.566;10.238;2023-09-19T02:56:45;99442.72;;;21.89;73.47
79138;BME280;68544;45.566;10.238;2023-09-19T02:59:10;99451.47;;;21.81;73.97
79138;BME280;68544;45.566;10.238;2023-09-19T03:01:36;99449.78;;;21.75;74.12
79138;BME280;68544;45.566;10.238;2023-09-19T03:04:03;99442.38;;;21.55;74.44
79138;BME280;68544;45.566;10.238;2023-09-19T03:06:31;99441.25;;;21.56;74.37
79138;BME280;68544;45.566;10.238;2023-09-19T03:08:56;99447.28;;;21.48;74.60
79138;BME280;68544;45.566;10.238;2023-09-19T03:11:22;99448.69;;;21.61;74.13
79138;BME280;68544;45.566;10.238;2023-09-19T03:13:54;99452.75;;;21.28;74.67
79138;BME280;68544;45.566;10.238;2023-09-19T03:16:19;99457.72;;;21.46;74.34
79138;BME280;68544;45.566;10.238;2023-09-19T03:18:47;99446.22;;;21.59;73.83
79138;BME280;68544;45.566;10.238;2023-09-19T03:21:14;99441.22;;;21.41;74.37
79138;BME280;68544;45.566;10.238;2023-09-19T03:23:40;99443.47;;;21.69;73.16
79138;BME280;68544;45.566;10.238;2023-09-19T03:26:05;99437.41;;;21.62;73.30
79138;BME280;68544;45.566;10.238;2023-09-19T03:28:33;99438.25;;;21.63;73.46
79138;BME280;68544;45.566;10.238;2023-09-19T03:31:03;99436.59;;;21.62;73.27
79138;BME280;68544;45.566;10.238;2023-09-19T03:33:29;99435.50;;;21.68;73.23
79138;BME280;68544;45.566;10.238;2023-09-19T03:35:57;99433.59;;;21.78;72.30
79138;BME280;68544;45.566;10.238;2023-09-19T03:38:25;99437.16;;;21.69;72.70
79138;BME280;68544;45.566;10.238;2023-09-19T03:40:50;99435.78;;;21.76;72.49
79138;BME280;68544;45.566;10.238;2023-09-19T03:43:15;99426.41;;;21.52;73.47
79138;BME280;68544;45.566;10.238;2023-09-19T03:45:41;99420.66;;;21.59;73.29
79138;BME280;68544;45.566;10.238;2023-09-19T03:48:09;99423.94;;;21.61;73.36
79138;BME280;68544;45.566;10.238;2023-09-19T03:50:35;99422.31;;;21.65;73.04
79138;BME280;68544;45.566;10.238;2023-09-19T03:53:00;99422.59;;;21.73;72.82
79138;BME280;68544;45.566;10.238;2023-09-19T03:55:25;99415.47;;;21.72;72.78
79138;BME280;68544;45.566;10.238;2023-09-19T03:57:52;99415.72;;;21.76;72.59
79138;BME280;68544;45.566;10.238;2023-09-19T04:00:18;99403.88;;;21.40;73.93
79138;BME280;68544;45.566;10.238;2023-09-19T04:02:46;99409.66;;;21.39;74.11
79138;BME280;68544;45.566;10.238;2023-09-19T04:05:11;99414.34;;;21.43;74.10
79138;BME280;68544;45.566;10.238;2023-09-19T04:07:37;99420.09;;;21.57;73.42
79138;BME280;68544;45.566;10.238;2023-09-19T04:10:02;99420.13;;;21.62;73.22
79138;BME280;68544;45.566;10.238;2023-09-19T04:12:28;99423.13;;;21.60;73.23
79138;BME280;68544;45.566;10.238;2023-09-19T04:14:53;99419.78;;;21.28;74.08
79138;BME280;68544;45.566;10.238;2023-09-19T04:17:19;99385.97;;;21.12;73.94
79138;BME280;68544;45.566;10.238;2023-09-19T04:19:44;99416.72;;;21.09;74.39
79138;BME280;68544;45.566;10.238;2023-09-19T04:22:10;99414.00;;;21.24;73.52
79138;BME280;68544;45.566;10.238;2023-09-19T04:24:36;99418.97;;;21.38;72.84
79138;BME280;68544;45.566;10.238;2023-09-19T04:27:03;99420.88;;;21.37;72.89
79138;BME280;68544;45.566;10.238;2023-09-19T04:29:28;99424.75;;;21.46;72.54
79138;BME280;68544;45.566;10.238;2023-09-19T04:31:54;99418.44;;;21.46;72.50
79138;BME280;68544;45.566;10.238;2023-09-19T04:34:19;99417.34;;;21.37;73.14
79138;BME280;68544;45.566;10.238;2023-09-19T04:36:45;99423.69;;;21.47;72.64
79138;BME280;68544;45.566;10.238;2023-09-19T04:39:10;99424.72;;;21.41;72.83
79138;BME280;68544;45.566;10.238;2023-09-19T04:41:37;99429.13;;;21.32;73.49
79138;BME280;68544;45.566;10.238;2023-09-19T04:44:05;99437.38;;;21.32;73.80
79138;BME280;68544;45.566;10.238;2023-09-19T04:46:31;99434.66;;;21.47;73.07
79138;BME280;68544;45.566;10.238;2023-09-19T04:48:56;99442.34;;;21.45;73.41
79138;BME280;68544;45.566;10.238;2023-09-19T04:51:22;99445.09;;;21.50;73.18
79138;BME280;68544;45.566;10.238;2023-09-19T04:53:47;99452.19;;;21.41;73.37
79138;BME280;68544;45.566;10.238;2023-09-19T04:56:13;99458.50;;;21.32;74.04
79138;BME280;68544;45.566;10.238;2023-09-19T04:58:38;99456.34;;;21.39;73.74
79138;BME280;68544;45.566;10.238;2023-09-19T05:01:04;99464.69;;;21.02;75.10
79138;BME280;68544;45.566;10.238;2023-09-19T05:03:29;99471.88;;;21.08;75.25
79138;BME280;68544;45.566;10.238;2023-09-19T05:05:54;99477.38;;;21.08;74.83
79138;BME280;68544;45.566;10.238;2023-09-19T05:08:20;99478.50;;;21.17;74.37
79138;BME280;68544;45.566;10.238;2023-09-19T05:10:47;99485.16;;;21.36;73.60
79138;BME280;68544;45.566;10.238;2023-09-19T05:13:12;99494.75;;;21.23;73.89
79138;BME280;68544;45.566;10.238;2023-09-19T05:15:38;99494.81;;;21.39;73.29
79138;BME280;68544;45.566;10.238;2023-09-19T05:18:04;99493.13;;;21.33;73.07
79138;BME280;68544;45.566;10.238;2023-09-19T05:20:31;99499.31;;;21.03;73.97
79138;BME280;68544;45.566;10.238;2023-09-19T05:23:02;99505.44;;;21.20;73.25
79138;BME280;68544;45.566;10.238;2023-09-19T05:25:32;99511.47;;;21.17;73.20
79138;BME280;68544;45.566;10.238;2023-09-19T05:27:58;99515.34;;;21.26;73.14
79138;BME280;68544;45.566;10.238;2023-09-19T05:30:25;99516.47;;;21.30;73.14
79138;BME280;68544;45.566;10.238;2023-09-19T05:32:52;99505.41;;;21.15;73.33
79138;BME280;68544;45.566;10.238;2023-09-19T05:35:17;99505.31;;;21.00;74.38
79138;BME280;68544;45.566;10.238;2023-09-19T05:37:43;99504.91;;;21.28;73.21
79138;BME280;68544;45.566;10.238;2023-09-19T05:40:09;99485.09;;;21.16;73.43
79138;BME280;68544;45.566;10.238;2023-09-19T05:42:37;99496.13;;;21.31;73.56
79138;BME280;68544;45.566;10.238;2023-09-19T05:45:04;99509.09;;;21.46;72.90
79138;BME280;68544;45.566;10.238;2023-09-19T05:47:32;99514.88;;;21.54;72.41
79138;BME280;68544;45.566;10.238;2023-09-19T05:49:57;99514.03;;;21.44;72.79
79138;BME280;68544;45.566;10.238;2023-09-19T05:52:22;99516.50;;;21.40;72.95
79138;BME280;68544;45.566;10.238;2023-09-19T05:54:48;99534.56;;;21.26;73.26
79138;BME280;68544;45.566;10.238;2023-09-19T05:57:14;99507.34;;;21.24;72.80
79138;BME280;68544;45.566;10.238;2023-09-19T05:59:40;99527.78;;;21.54;72.41
79138;BME280;68544;45.566;10.238;2023-09-19T06:02:07;99527.50;;;21.50;72.64
79138;BME280;68544;45.566;10.238;2023-09-19T06:04:35;99522.34;;;21.64;72.18
79138;BME280;68544;45.566;10.238;2023-09-19T06:07:00;99539.34;;;21.51;73.23
79138;BME280;68544;45.566;10.238;2023-09-19T06:09:26;99530.59;;;21.69;72.44
79138;BME280;68544;45.566;10.238;2023-09-19T06:11:53;99528.22;;;21.97;71.06
79138;BME280;68544;45.566;10.238;2023-09-19T06:14:18;99537.81;;;22.00;71.29
79138;BME280;68544;45.566;10.238;2023-09-19T06:16:44;99525.47;;;22.13;70.47
79138;BME280;68544;45.566;10.238;2023-09-19T06:19:10;99530.72;;;22.29;69.65
79138;BME280;68544;45.566;10.238;2023-09-19T06:21:36;99519.16;;;22.22;70.16
79138;BME280;68544;45.566;10.238;2023-09-19T06:24:02;99513.94;;;22.46;69.14
79138;BME280;68544;45.566;10.238;2023-09-19T06:26:28;99517.78;;;22.50;68.58
79138;BME280;68544;45.566;10.238;2023-09-19T06:28:54;99521.88;;;22.57;68.86
79138;BME280;68544;45.566;10.238;2023-09-19T06:31:21;99532.91;;;22.77;67.78
79138;BME280;68544;45.566;10.238;2023-09-19T06:33:48;99524.00;;;23.06;66.88
79138;BME280;68544;45.566;10.238;2023-09-19T06:36:14;99531.97;;;23.17;65.88
79138;BME280;68544;45.566;10.238;2023-09-19T06:38:40;99529.69;;;23.39;65.38
79138;BME280;68544;45.566;10.238;2023-09-19T06:41:06;99530.88;;;23.13;66.02
79138;BME280;68544;45.566;10.238;2023-09-19T06:43:33;99532.47;;;23.24;65.95
79138;BME280;68544;45.566;10.238;2023-09-19T06:46:02;99518.59;;;23.54;64.80
79138;BME280;68544;45.566;10.238;2023-09-19T06:48:27;99532.41;;;23.98;63.62
79138;BME280;68544;45.566;10.238;2023-09-19T06:50:55;99530.22;;;24.39;62.54
79138;BME280;68544;45.566;10.238;2023-09-19T06:53:20;99532.78;;;24.59;61.31
79138;BME280;68544;45.566;10.238;2023-09-19T06:55:46;99530.31;;;24.24;62.12
79138;BME280;68544;45.566;10.238;2023-09-19T06:58:12;99532.13;;;24.05;62.92
79138;BME280;68544;45.566;10.238;2023-09-19T07:00:38;99529.25;;;24.20;62.56
79138;BME280;68544;45.566;10.238;2023-09-19T07:03:07;99530.84;;;24.88;60.47
79138;BME280;68544;45.566;10.238;2023-09-19T07:05:39;99537.81;;;25.33;59.21
79138;BME280;68544;45.566;10.238;2023-09-19T07:08:06;99542.47;;;25.38;59.02
79138;BME280;68544;45.566;10.238;2023-09-19T07:10:32;99545.91;;;25.53;58.36
79138;BME280;68544;45.566;10.238;2023-09-19T07:13:05;99546.69;;;25.06;59.51
79138;BME280;68544;45.566;10.238;2023-09-19T07:15:37;99546.72;;;25.72;57.78
79138;BME280;68544;45.566;10.238;2023-09-19T07:18:05;99544.00;;;25.91;56.58
79138;BME280;68544;45.566;10.238;2023-09-19T07:20:31;99558.41;;;25.88;56.30
79138;BME280;68544;45.566;10.238;2023-09-19T07:22:58;99543.59;;;25.98;56.40
79138;BME280;68544;45.566;10.238;2023-09-19T07:25:29;99552.97;;;26.02;56.34
79138;BME280;68544;45.566;10.238;2023-09-19T07:27:56;99544.28;;;25.90;55.98
79138;BME280;68544;45.566;10.238;2023-09-19T07:30:21;99554.38;;;26.36;54.96
79138;BME280;68544;45.566;10.238;2023-09-19T07:32:47;99554.84;;;26.76;53.95
79138;BME280;68544;45.566;10.238;2023-09-19T07:35:12;99548.94;;;26.96;52.96
79138;BME280;68544;45.566;10.238;2023-09-19T07:37:38;99556.03;;;27.02;52.89
79138;BME280;68544;45.566;10.238;2023-09-19T07:40:03;99555.84;;;26.98;52.65
79138;BME280;68544;45.566;10.238;2023-09-19T07:42:33;99549.81;;;26.78;52.98
79138;BME280;68544;45.566;10.238;2023-09-19T07:45:00;99559.25;;;27.09;52.05
79138;BME280;68544;45.566;10.238;2023-09-19T07:47:25;99557.38;;;27.18;51.85
79138;BME280;68544;45.566;10.238;2023-09-19T07:49:51;99561.19;;;27.22;50.76
79138;BME280;68544;45.566;10.238;2023-09-19T07:52:16;99559.97;;;27.69;49.34
79138;BME280;68544;45.566;10.238;2023-09-19T07:54:41;99562.50;;;27.92;49.10
79138;BME280;68544;45.566;10.238;2023-09-19T07:57:09;99566.31;;;28.54;47.94
79138;BME280;68544;45.566;10.238;2023-09-19T07:59:34;99570.31;;;28.40;48.00
79138;BME280;68544;45.566;10.238;2023-09-19T08:02:01;99569.53;;;28.61;47.16
79138;BME280;68544;45.566;10.238;2023-09-19T08:04:29;99565.81;;;28.97;46.13
79138;BME280;68544;45.566;10.238;2023-09-19T08:06:57;99567.75;;;29.18;45.68
79138;BME280;68544;45.566;10.238;2023-09-19T08:09:26;99572.66;;;29.52;44.41
79138;BME280;68544;45.566;10.238;2023-09-19T08:11:51;99578.03;;;29.96;43.11
79138;BME280;68544;45.566;10.238;2023-09-19T08:14:16;99575.81;;;30.32;41.91
79138;BME280;68544;45.566;10.238;2023-09-19T08:16:42;99580.22;;;30.42;41.61
79138;BME280;68544;45.566;10.238;2023-09-19T08:19:10;99574.28;;;30.01;41.59
79138;BME280;68544;45.566;10.238;2023-09-19T08:21:36;99559.09;;;30.50;41.23
79138;BME280;68544;45.566;10.238;2023-09-19T08:24:01;99579.22;;;30.29;41.88
79138;BME280;68544;45.566;10.238;2023-09-19T08:26:29;99577.88;;;30.18;42.46
79138;BME280;68544;45.566;10.238;2023-09-19T08:28:55;99575.97;;;30.36;42.56
79138;BME280;68544;45.566;10.238;2023-09-19T08:31:21;99579.38;;;30.67;41.80
79138;BME280;68544;45.566;10.238;2023-09-19T08:33:47;99573.72;;;31.18;40.57
79138;BME280;68544;45.566;10.238;2023-09-19T08:36:14;99567.78;;;31.96;39.52
79138;BME280;68544;45.566;10.238;2023-09-19T08:38:40;99573.00;;;33.81;34.97
79138;BME280;68544;45.566;10.238;2023-09-19T08:41:06;99570.13;;;36.98;28.69
79138;BME280;68544;45.566;10.238;2023-09-19T08:43:35;99560.56;;;39.16;25.77
79138;BME280;68544;45.566;10.238;2023-09-19T08:46:14;99560.25;;;41.54;22.11
79138;BME280;68544;45.566;10.238;2023-09-19T08:48:53;99564.91;;;42.74;20.66
79138;BME280;68544;45.566;10.238;2023-09-19T08:51:27;99554.63;;;42.97;19.61
79138;BME280;68544;45.566;10.238;2023-09-19T08:54:03;99552.63;;;44.04;18.57
79138;BME280;68544;45.566;10.238;2023-09-19T08:56:34;99555.38;;;44.11;18.47
79138;BME280;68544;45.566;10.238;2023-09-19T08:59:05;99554.34;;;43.40;19.30
79138;BME280;68544;45.566;10.238;2023-09-19T09:01:33;99551.38;;;45.03;17.30
79138;BME280;68544;45.566;10.238;2023-09-19T09:03:58;99559.53;;;44.37;18.26
79138;BME280;68544;45.566;10.238;2023-09-19T09:06:25;99559.00;;;41.20;21.73
79138;BME280;68544;45.566;10.238;2023-09-19T09:08:51;99557.16;;;39.87;23.24
79138;BME280;68544;45.566;10.238;2023-09-19T09:11:18;99554.59;;;38.28;25.90
79138;BME280;68544;45.566;10.238;2023-09-19T09:13:45;99555.47;;;37.54;26.92
79138;BME280;68544;45.566;10.238;2023-09-19T09:16:12;99558.63;;;37.07;27.85
79138;BME280;68544;45.566;10.238;2023-09-19T09:18:38;99571.00;;;36.83;28.24
79138;BME280;68544;45.566;10.238;2023-09-19T09:21:04;99554.44;;;37.20;27.65
79138;BME280;68544;45.566;10.238;2023-09-19T09:23:30;99560.06;;;36.78;27.92
79138;BME280;68544;45.566;10.238;2023-09-19T09:25:58;99559.13;;;38.07;26.25
79138;BME280;68544;45.566;10.238;2023-09-19T09:28:28;99549.31;;;41.42;22.41
79138;BME280;68544;45.566;10.238;2023-09-19T09:30:54;99561.00;;;42.29;20.28
79138;BME280;68544;45.566;10.238;2023-09-19T09:33:20;99550.88;;;44.81;17.99
79138;BME280;68544;45.566;10.238;2023-09-19T09:36:00;99553.22;;;46.75;16.03
79138;BME280;68544;45.566;10.238;2023-09-19T09:38:46;99544.03;;;46.25;16.37
79138;BME280;68544;45.566;10.238;2023-09-19T09:41:15;99548.75;;;47.45;15.32
79138;BME280;68544;45.566;10.238;2023-09-19T09:43:52;99552.13;;;44.77;17.39
79138;BME280;68544;45.566;10.238;2023-09-19T09:46:20;99543.22;;;46.04;16.19
79138;BME280;68544;45.566;10.238;2023-09-19T09:54:25;99535.31;;;50.33;12.50
79138;BME280;68544;45.566;10.238;2023-09-19T09:56:58;99524.78;;;49.49;12.91
79138;BME280;68544;45.566;10.238;2023-09-19T09:59:53;99526.81;;;48.98;13.44
79138;BME280;68544;45.566;10.238;2023-09-19T10:02:26;99534.19;;;48.46;13.62
79138;BME280;68544;45.566;10.238;2023-09-19T10:04:56;99525.31;;;49.06;13.29
79138;BME280;68544;45.566;10.238;2023-09-19T10:07:30;99535.66;;;50.01;12.77
79138;BME280;68544;45.566;10.238;2023-09-19T10:10:03;99528.09;;;50.29;12.24
79138;BME280;68544;45.566;10.238;2023-09-19T10:12:46;99525.31;;;50.04;12.60
79138;BME280;68544;45.566;10.238;2023-09-19T10:15:15;99531.28;;;48.87;13.19
79138;BME280;68544;45.566;10.238;2023-09-19T10:17:43;99532.66;;;50.05;12.33
79138;BME280;68544;45.566;10.238;2023-09-19T10:20:12;99529.06;;;51.49;11.42
79138;BME280;68544;45.566;10.238;2023-09-19T10:22:48;99530.16;;;50.28;12.23
79138;BME280;68544;45.566;10.238;2023-09-19T10:25:25;99526.00;;;50.73;11.79
79138;BME280;68544;45.566;10.238;2023-09-19T10:27:52;99528.00;;;51.64;10.94
79138;BME280;68544;45.566;10.238;2023-09-19T10:30:22;99531.56;;;52.04;11.11
79138;BME280;68544;45.566;10.238;2023-09-19T10:32:56;99537.06;;;50.52;12.09
79138;BME280;68544;45.566;10.238;2023-09-19T10:35:22;99536.34;;;50.05;12.69
79138;BME280;68544;45.566;10.238;2023-09-19T10:37:50;99520.22;;;50.42;12.16
79138;BME280;68544;45.566;10.238;2023-09-19T10:40:18;99526.16;;;49.32;12.83
79138;BME280;68544;45.566;10.238;2023-09-19T10:42:46;99528.34;;;50.22;11.97
79138;BME280;68544;45.566;10.238;2023-09-19T10:45:15;99526.09;;;50.17;12.65
79138;BME280;68544;45.566;10.238;2023-09-19T10:47:45;99521.94;;;50.18;12.68
79138;BME280;68544;45.566;10.238;2023-09-19T10:50:19;99526.16;;;51.00;11.77
79138;BME280;68544;45.566;10.238;2023-09-19T10:52:47;99522.34;;;49.48;12.72
79138;BME280;68544;45.566;10.238;2023-09-19T10:55:19;99523.03;;;49.99;12.48
79138;BME280;68544;45.566;10.238;2023-09-19T10:57:47;99521.97;;;50.61;11.96
79138;BME280;68544;45.566;10.238;2023-09-19T11:00:13;99521.47;;;48.02;14.13
79138;BME280;68544;45.566;10.238;2023-09-19T11:03:19;99517.31;;;51.25;11.58
79138;BME280;68544;45.566;10.238;2023-09-19T11:06:05;99505.91;;;51.52;10.69
79138;BME280;68544;45.566;10.238;2023-09-19T11:08:51;99517.25;;;51.16;11.30
79138;BME280;68544;45.566;10.238;2023-09-19T11:14:16;99502.44;;;52.12;10.39
79138;BME280;68544;45.566;10.238;2023-09-19T11:36:07;99474.72;;;51.11;11.09
79138;BME280;68544;45.566;10.238;2023-09-19T11:44:38;99481.91;;;49.55;12.39
79138;BME280;68544;45.566;10.238;2023-09-19T11:49:15;99475.63;;;47.73;13.65
79138;BME280;68544;45.566;10.238;2023-09-19T11:51:46;99478.13;;;49.07;12.36
79138;BME280;68544;45.566;10.238;2023-09-19T11:54:14;99479.31;;;48.97;12.82
79138;BME280;68544;45.566;10.238;2023-09-19T11:56:44;99481.44;;;48.68;13.13
79138;BME280;68544;45.566;10.238;2023-09-19T11:59:11;99482.97;;;48.03;13.34
79138;BME280;68544;45.566;10.238;2023-09-19T12:01:38;99481.47;;;47.53;14.18
79138;BME280;68544;45.566;10.238;2023-09-19T12:04:11;99483.81;;;46.55;14.85
79138;BME280;68544;45.566;10.238;2023-09-19T12:06:37;99488.47;;;43.48;17.74
79138;BME280;68544;45.566;10.238;2023-09-19T12:09:12;99482.00;;;41.96;19.38
79138;BME280;68544;45.566;10.238;2023-09-19T12:11:41;99475.19;;;41.02;20.65
79138;BME280;68544;45.566;10.238;2023-09-19T12:14:09;99472.03;;;40.06;21.74
79138;BME280;68544;45.566;10.238;2023-09-19T12:16:34;99475.16;;;39.36;22.48
79138;BME280;68544;45.566;10.238;2023-09-19T12:19:18;99469.72;;;38.74;23.80
79138;BME280;68544;45.566;10.238;2023-09-19T12:21:54;99474.75;;;37.68;25.22
79138;BME280;68544;45.566;10.238;2023-09-19T12:24:19;99474.53;;;38.07;24.75
79138;BME280;68544;45.566;10.238;2023-09-19T12:26:46;99465.06;;;37.66;25.91
79138;BME280;68544;45.566;10.238;2023-09-19T12:29:19;99469.16;;;37.72;25.54
79138;BME280;68544;45.566;10.238;2023-09-19T12:31:51;99464.78;;;36.99;26.86
79138;BME280;68544;45.566;10.238;2023-09-19T12:36:48;99465.41;;;36.89;27.14
79138;BME280;68544;45.566;10.238;2023-09-19T12:39:24;99471.81;;;36.48;28.17
79138;BME280;68544;45.566;10.238;2023-09-19T12:41:51;99467.53;;;35.97;28.24
79138;BME280;68544;45.566;10.238;2023-09-19T12:44:18;99460.00;;;34.88;30.06
79138;BME280;68544;45.566;10.238;2023-09-19T12:46:44;99459.53;;;35.48;28.99
79138;BME280;68544;45.566;10.238;2023-09-19T12:49:17;99459.50;;;35.29;28.96
79138;BME280;68544;45.566;10.238;2023-09-19T12:51:43;99456.88;;;35.05;29.25
79138;BME280;68544;45.566;10.238;2023-09-19T12:54:12;99452.50;;;34.49;30.51
79138;BME280;68544;45.566;10.238;2023-09-19T12:56:41;99458.50;;;33.80;31.60
79138;BME280;68544;45.566;10.238;2023-09-19T12:59:11;99459.50;;;33.87;31.77
79138;BME280;68544;45.566;10.238;2023-09-19T13:01:39;99454.78;;;34.15;31.05
79138;BME280;68544;45.566;10.238;2023-09-19T13:04:18;99454.47;;;34.33;30.81
79138;BME280;68544;45.566;10.238;2023-09-19T13:06:48;99444.47;;;34.19;31.10
79138;BME280;68544;45.566;10.238;2023-09-19T13:09:15;99449.72;;;33.81;31.82
79138;BME280;68544;45.566;10.238;2023-09-19T13:11:41;99449.72;;;33.81;32.14
79138;BME280;68544;45.566;10.238;2023-09-19T13:14:18;99446.00;;;33.77;32.30
79138;BME280;68544;45.566;10.238;2023-09-19T13:17:03;99460.75;;;33.38;32.67
79138;BME280;68544;45.566;10.238;2023-09-19T13:19:44;99452.81;;;33.52;31.97
79138;BME280;68544;45.566;10.238;2023-09-19T13:22:37;99457.94;;;33.26;32.36
79138;BME280;68544;45.566;10.238;2023-09-19T13:25:07;99447.31;;;33.07;32.61
79138;BME280;68544;45.566;10.238;2023-09-19T13:27:33;99453.97;;;33.03;32.97
79138;BME280;68544;45.566;10.238;2023-09-19T13:29:59;99449.94;;;32.80;33.56
79138;BME280;68544;45.566;10.238;2023-09-19T13:32:25;99454.41;;;32.93;33.20
79138;BME280;68544;45.566;10.238;2023-09-19T13:34:50;99446.41;;;33.03;32.79
79138;BME280;68544;45.566;10.238;2023-09-19T13:37:16;99447.16;;;32.80;33.51
79138;BME280;68544;45.566;10.238;2023-09-19T13:39:43;99449.00;;;32.63;33.32
79138;BME280;68544;45.566;10.238;2023-09-19T13:42:13;99446.88;;;32.60;33.61
79138;BME280;68544;45.566;10.238;2023-09-19T13:44:38;99445.03;;;32.64;33.74